createdAt,value
2023-01-26T00:06:17.139Z,0.00
2023-01-26T00:16:17.525Z,0.00
2023-01-26T00:26:17.631Z,0.00
2023-01-26T00:36:17.939Z,0.00
2023-01-26T00:46:18.037Z,0.00
2023-01-26T00:56:18.211Z,0.00
2023-01-26T01:06:18.238Z,0.00
2023-01-26T01:16:18.581Z,0.00
2023-01-26T01:26:18.608Z,0.00
2023-01-26T01:36:19.062Z,0.00
2023-01-26T01:46:19.021Z,0.00
2023-01-26T01:56:19.122Z,0.00
2023-01-26T02:06:19.369Z,0.00
2023-01-26T02:16:19.784Z,0.00
2023-01-26T02:26:19.875Z,0.00
2023-01-26T02:36:20.268Z,0.00
2023-01-26T02:46:20.316Z,0.00
2023-01-26T02:56:20.734Z,0.00
2023-01-26T03:06:20.802Z,0.00
2023-01-26T03:16:21.237Z,0.00
2023-01-26T03:26:21.293Z,0.00
2023-01-26T03:36:21.583Z,0.00
2023-01-26T03:46:21.834Z,0.00
2023-01-26T03:56:22.013Z,0.00
2023-01-26T04:06:22.184Z,0.00
2023-01-26T04:16:22.545Z,0.00
2023-01-26T04:26:22.595Z,0.00
2023-01-26T04:36:22.998Z,0.00
2023-01-26T04:46:23.055Z,0.00
2023-01-26T04:56:23.482Z,0.00
2023-01-26T05:06:23.537Z,0.00
2023-01-26T05:16:23.864Z,0.00
2023-01-26T05:26:23.918Z,0.00
2023-01-26T05:36:24.328Z,0.00
2023-01-26T05:46:24.282Z,0.00
2023-01-26T05:56:24.690Z,0.00
2023-01-26T06:06:24.819Z,0.00
2023-01-26T06:16:25.999Z,0.00
2023-01-26T06:26:25.134Z,0.00
2023-01-26T06:36:25.431Z,0.00
2023-01-26T06:46:25.509Z,0.00
2023-01-26T06:56:25.599Z,4.00
2023-01-26T07:06:25.633Z,8.00
2023-01-26T07:16:26.039Z,16.00
2023-01-26T07:26:26.163Z,20.00
2023-01-26T07:36:26.234Z,32.00
2023-01-26T07:46:26.479Z,40.00
2023-01-26T07:56:26.799Z,52.00
2023-01-26T08:06:26.846Z,60.00
2023-01-26T08:16:27.134Z,64.00
2023-01-26T08:26:27.161Z,72.00
2023-01-26T08:36:30.520Z,88.00
2023-01-26T08:46:27.585Z,104.00
2023-01-26T08:56:27.927Z,124.00
2023-01-26T09:06:27.950Z,124.00
2023-01-26T09:16:29.325Z,120.00
2023-01-26T09:26:28.354Z,128.00
2023-01-26T09:36:29.719Z,140.00
2023-01-26T09:46:28.826Z,164.00
2023-01-26T09:56:28.936Z,184.00
2023-01-26T10:06:29.075Z,192.00
2023-01-26T10:16:31.176Z,208.00
2023-01-26T10:26:29.211Z,228.00
2023-01-26T10:36:29.468Z,220.00
2023-01-26T10:46:29.758Z,228.00
2023-01-26T10:56:30.880Z,224.00
2023-01-26T11:06:29.925Z,236.00
2023-01-26T11:16:32.315Z,224.00
2023-01-26T11:26:30.352Z,240.00
2023-01-26T11:36:30.686Z,204.00
2023-01-26T11:46:30.886Z,204.00
2023-01-26T11:56:31.968Z,220.00
2023-01-26T12:06:31.037Z,224.00
2023-01-26T12:16:31.345Z,156.00
2023-01-26T12:26:31.410Z,176.00
2023-01-26T12:36:31.697Z,184.00
2023-01-26T12:46:31.902Z,212.00
2023-01-26T12:56:32.060Z,220.00
2023-01-26T13:06:32.103Z,192.00
2023-01-26T13:16:32.451Z,124.00
2023-01-26T13:26:32.542Z,140.00
2023-01-26T13:36:32.813Z,176.00
2023-01-26T13:46:32.891Z,164.00
2023-01-26T13:56:32.972Z,160.00
2023-01-26T14:06:33.199Z,164.00
2023-01-26T14:16:33.656Z,136.00
2023-01-26T14:26:33.685Z,100.00
2023-01-26T14:36:34.217Z,112.00
2023-01-26T14:46:34.097Z,96.00
2023-01-26T14:56:34.292Z,88.00
2023-01-26T15:06:34.338Z,44.00
2023-01-26T15:16:34.659Z,44.00
2023-01-26T15:26:34.698Z,44.00
2023-01-26T15:36:35.058Z,36.00
2023-01-26T15:46:35.142Z,24.00
2023-01-26T15:56:35.298Z,12.00
2023-01-26T16:06:35.370Z,4.00
2023-01-26T16:16:35.691Z,16.00
2023-01-26T16:26:35.747Z,0.00
2023-01-26T16:36:36.040Z,0.00
2023-01-26T16:46:36.070Z,12.00
2023-01-26T16:56:36.403Z,0.00
2023-01-26T17:06:36.619Z,0.00
2023-01-26T17:16:36.573Z,0.00
2023-01-26T17:26:36.679Z,0.00
2023-01-26T17:36:36.939Z,0.00
2023-01-26T17:46:37.182Z,0.00
2023-01-26T17:56:38.439Z,0.00
2023-01-26T18:06:37.711Z,0.00
2023-01-26T18:16:38.177Z,0.00
2023-01-26T18:26:38.181Z,0.00
2023-01-26T18:36:38.242Z,0.00
2023-01-26T18:46:38.462Z,0.00
2023-01-26T18:56:41.559Z,0.00
2023-01-26T19:06:38.966Z,0.00
2023-01-26T19:16:38.995Z,0.00
2023-01-26T19:26:39.872Z,0.00
2023-01-26T19:36:40.546Z,0.00
2023-01-26T19:46:39.464Z,0.00
2023-01-26T19:56:40.096Z,0.00
2023-01-26T20:06:40.064Z,0.00
2023-01-26T20:16:40.234Z,0.00
2023-01-26T20:26:40.357Z,0.00
2023-01-26T20:36:40.642Z,0.00
2023-01-26T20:46:40.804Z,0.00
2023-01-26T20:56:40.746Z,0.00
2023-01-26T21:06:41.197Z,0.00
2023-01-26T21:16:41.478Z,0.00
2023-01-26T21:26:42.407Z,0.00
2023-01-26T21:36:41.863Z,0.00
2023-01-26T21:46:41.700Z,0.00
2023-01-26T21:56:42.073Z,0.00
2023-01-26T22:06:42.122Z,0.00
2023-01-26T22:16:42.582Z,0.00
2023-01-26T22:26:42.524Z,0.00
2023-01-26T22:36:44.637Z,0.00
2023-01-26T22:46:42.688Z,0.00
2023-01-26T22:56:43.056Z,0.00
2023-01-26T23:06:43.137Z,0.00
2023-01-26T23:16:43.456Z,0.00
2023-01-26T23:26:43.307Z,0.00
2023-01-26T23:36:43.596Z,0.00
2023-01-26T23:46:43.722Z,0.00
2023-01-26T23:56:43.870Z,0.00
